sensor_id;sensor_type;location;lat;lon;timestamp;P1;durP1;ratioP1;P2;durP2;ratioP2
19151;SDS011;9708;53.114;9.388;2023-10-31T00:00:00;1.77;;;1.67;;
19151;SDS011;9708;53.114;9.388;2023-10-31T00:02:28;0.80;;;0.80;;
19151;SDS011;9708;53.114;9.388;2023-10-31T00:04:55;0.73;;;0.73;;
19151;SDS011;9708;53.114;9.388;2023-10-31T00:07:22;2.03;;;1.63;;
19151;SDS011;9708;53.114;9.388;2023-10-31T00:09:50;2.93;;;1.90;;
19151;SDS011;9708;53.114;9.388;2023-10-31T00:12:17;0.97;;;0.93;;
19151;SDS011;9708;53.114;9.388;2023-10-31T00:14:43;0.67;;;0.67;;
19151;SDS011;9708;53.114;9.388;2023-10-31T00:17:10;0.80;;;0.80;;
19151;SDS011;9708;53.114;9.388;2023-10-31T00:19:37;0.50;;;0.50;;
19151;SDS011;9708;53.114;9.388;2023-10-31T00:22:03;0.80;;;0.80;;
19151;SDS011;9708;53.114;9.388;2023-10-31T00:24:30;1.23;;;1.07;;
19151;SDS011;9708;53.114;9.388;2023-10-31T00:26:59;0.50;;;0.50;;
19151;SDS011;9708;53.114;9.388;2023-10-31T00:29:26;1.07;;;0.97;;
19151;SDS011;9708;53.114;9.388;2023-10-31T00:31:52;0.63;;;0.57;;
19151;SDS011;9708;53.114;9.388;2023-10-31T00:34:19;1.57;;;1.50;;
19151;SDS011;9708;53.114;9.388;2023-10-31T00:36:46;1.57;;;1.47;;
19151;SDS011;9708;53.114;9.388;2023-10-31T00:39:13;1.23;;;1.10;;
19151;SDS011;9708;53.114;9.388;2023-10-31T00:41:43;1.73;;;0.87;;
19151;SDS011;9708;53.114;9.388;2023-10-31T00:44:12;1.17;;;0.80;;
19151;SDS011;9708;53.114;9.388;2023-10-31T00:46:38;1.50;;;1.00;;
19151;SDS011;9708;53.114;9.388;2023-10-31T00:49:05;1.07;;;0.97;;
19151;SDS011;9708;53.114;9.388;2023-10-31T00:51:32;1.03;;;1.00;;
19151;SDS011;9708;53.114;9.388;2023-10-31T00:53:59;1.33;;;1.20;;
19151;SDS011;9708;53.114;9.388;2023-10-31T00:56:26;1.00;;;1.00;;
19151;SDS011;9708;53.114;9.388;2023-10-31T00:58:52;0.50;;;0.47;;
19151;SDS011;9708;53.114;9.388;2023-10-31T01:01:20;2.27;;;1.57;;
19151;SDS011;9708;53.114;9.388;2023-10-31T01:03:47;1.23;;;1.20;;
19151;SDS011;9708;53.114;9.388;2023-10-31T01:06:14;0.47;;;0.47;;
19151;SDS011;9708;53.114;9.388;2023-10-31T01:08:41;0.73;;;0.73;;
19151;SDS011;9708;53.114;9.388;2023-10-31T01:11:07;1.10;;;1.10;;
19151;SDS011;9708;53.114;9.388;2023-10-31T01:13:34;1.03;;;1.03;;
19151;SDS011;9708;53.114;9.388;2023-10-31T01:16:01;0.73;;;0.73;;
19151;SDS011;9708;53.114;9.388;2023-10-31T01:18:29;1.70;;;1.60;;
19151;SDS011;9708;53.114;9.388;2023-10-31T01:20:56;1.63;;;0.97;;
19151;SDS011;9708;53.114;9.388;2023-10-31T01:23:22;1.67;;;1.50;;
19151;SDS011;9708;53.114;9.388;2023-10-31T01:25:49;1.90;;;1.37;;
19151;SDS011;9708;53.114;9.388;2023-10-31T01:28:16;4.53;;;1.30;;
19151;SDS011;9708;53.114;9.388;2023-10-31T01:30:43;0.90;;;0.90;;
19151;SDS011;9708;53.114;9.388;2023-10-31T01:33:09;3.13;;;1.33;;
19151;SDS011;9708;53.114;9.388;2023-10-31T01:35:38;2.50;;;1.33;;
19151;SDS011;9708;53.114;9.388;2023-10-31T01:38:04;1.77;;;1.53;;
19151;SDS011;9708;53.114;9.388;2023-10-31T01:40:31;1.80;;;1.10;;
19151;SDS011;9708;53.114;9.388;2023-10-31T01:42:58;1.67;;;1.50;;
19151;SDS011;9708;53.114;9.388;2023-10-31T01:45:25;0.80;;;0.80;;
19151;SDS011;9708;53.114;9.388;2023-10-31T01:47:51;0.63;;;0.63;;
19151;SDS011;9708;53.114;9.388;2023-10-31T01:50:19;1.77;;;1.20;;
19151;SDS011;9708;53.114;9.388;2023-10-31T01:52:47;1.37;;;1.27;;
19151;SDS011;9708;53.114;9.388;2023-10-31T01:55:14;1.63;;;1.07;;
19151;SDS011;9708;53.114;9.388;2023-10-31T01:57:40;1.20;;;1.07;;
19151;SDS011;9708;53.114;9.388;2023-10-31T02:00:07;5.50;;;1.77;;
19151;SDS011;9708;53.114;9.388;2023-10-31T02:02:35;3.20;;;2.73;;
19151;SDS011;9708;53.114;9.388;2023-10-31T02:05:04;1.20;;;1.17;;
19151;SDS011;9708;53.114;9.388;2023-10-31T02:07:31;0.97;;;0.97;;
19151;SDS011;9708;53.114;9.388;2023-10-31T02:09:59;1.83;;;1.20;;
19151;SDS011;9708;53.114;9.388;2023-10-31T02:12:33;0.83;;;0.80;;
19151;SDS011;9708;53.114;9.388;2023-10-31T02:15:00;1.77;;;1.20;;
19151;SDS011;9708;53.114;9.388;2023-10-31T02:17:28;2.63;;;1.60;;
19151;SDS011;9708;53.114;9.388;2023-10-31T02:19:55;1.10;;;1.10;;
19151;SDS011;9708;53.114;9.388;2023-10-31T02:22:23;1.07;;;1.07;;
19151;SDS011;9708;53.114;9.388;2023-10-31T02:24:49;1.90;;;1.10;;
19151;SDS011;9708;53.114;9.388;2023-10-31T02:27:16;3.07;;;1.80;;
19151;SDS011;9708;53.114;9.388;2023-10-31T02:29:43;5.50;;;2.53;;
19151;SDS011;9708;53.114;9.388;2023-10-31T02:32:10;1.47;;;0.97;;
19151;SDS011;9708;53.114;9.388;2023-10-31T02:34:36;2.83;;;1.30;;
19151;SDS011;9708;53.114;9.388;2023-10-31T02:37:03;1.77;;;1.67;;
19151;SDS011;9708;53.114;9.388;2023-10-31T02:39:32;1.57;;;1.47;;
19151;SDS011;9708;53.114;9.388;2023-10-31T02:41:59;2.20;;;1.30;;
19151;SDS011;9708;53.114;9.388;2023-10-31T02:44:26;1.33;;;1.33;;
19151;SDS011;9708;53.114;9.388;2023-10-31T02:46:52;4.93;;;2.97;;
19151;SDS011;9708;53.114;9.388;2023-10-31T02:49:19;1.40;;;1.30;;
19151;SDS011;9708;53.114;9.388;2023-10-31T02:51:46;0.90;;;0.90;;
19151;SDS011;9708;53.114;9.388;2023-10-31T02:54:13;1.27;;;1.20;;
19151;SDS011;9708;53.114;9.388;2023-10-31T02:56:41;2.67;;;2.43;;
19151;SDS011;9708;53.114;9.388;2023-10-31T02:59:07;3.27;;;2.47;;
19151;SDS011;9708;53.114;9.388;2023-10-31T03:01:34;3.63;;;2.47;;
19151;SDS011;9708;53.114;9.388;2023-10-31T03:04:02;2.87;;;1.83;;
19151;SDS011;9708;53.114;9.388;2023-10-31T03:06:29;2.00;;;1.83;;
19151;SDS011;9708;53.114;9.388;2023-10-31T03:08:55;1.80;;;1.53;;
19151;SDS011;9708;53.114;9.388;2023-10-31T03:11:22;6.60;;;3.67;;
19151;SDS011;9708;53.114;9.388;2023-10-31T03:13:51;3.40;;;1.43;;
19151;SDS011;9708;53.114;9.388;2023-10-31T03:16:18;3.70;;;1.47;;
19151;SDS011;9708;53.114;9.388;2023-10-31T03:18:46;2.50;;;2.10;;
19151;SDS011;9708;53.114;9.388;2023-10-31T03:21:13;2.37;;;2.17;;
19151;SDS011;9708;53.114;9.388;2023-10-31T03:23:41;2.97;;;2.30;;
19151;SDS011;9708;53.114;9.388;2023-10-31T03:26:08;2.83;;;2.10;;
19151;SDS011;9708;53.114;9.388;2023-10-31T03:28:35;3.83;;;2.47;;
19151;SDS011;9708;53.114;9.388;2023-10-31T03:31:03;2.93;;;1.80;;
19151;SDS011;9708;53.114;9.388;2023-10-31T03:33:30;2.17;;;1.97;;
19151;SDS011;9708;53.114;9.388;2023-10-31T03:35:57;4.60;;;2.33;;
19151;SDS011;9708;53.114;9.388;2023-10-31T03:38:23;3.43;;;1.60;;
19151;SDS011;9708;53.114;9.388;2023-10-31T03:40:50;1.17;;;1.17;;
19151;SDS011;9708;53.114;9.388;2023-10-31T03:43:17;3.87;;;2.30;;
19151;SDS011;9708;53.114;9.388;2023-10-31T03:45:45;7.37;;;3.30;;
19151;SDS011;9708;53.114;9.388;2023-10-31T03:48:15;2.20;;;1.90;;
19151;SDS011;9708;53.114;9.388;2023-10-31T03:50:42;4.70;;;2.37;;
19151;SDS011;9708;53.114;9.388;2023-10-31T03:53:09;2.43;;;1.90;;
19151;SDS011;9708;53.114;9.388;2023-10-31T03:55:36;2.23;;;1.73;;
19151;SDS011;9708;53.114;9.388;2023-10-31T03:58:03;3.03;;;2.37;;
19151;SDS011;9708;53.114;9.388;2023-10-31T04:00:30;4.37;;;1.77;;
19151;SDS011;9708;53.114;9.388;2023-10-31T04:02:57;1.87;;;1.53;;
19151;SDS011;9708;53.114;9.388;2023-10-31T04:05:25;2.47;;;2.00;;
19151;SDS011;9708;53.114;9.388;2023-10-31T04:07:52;1.60;;;1.43;;
19151;SDS011;9708;53.114;9.388;2023-10-31T04:10:19;3.17;;;2.87;;
19151;SDS011;9708;53.114;9.388;2023-10-31T04:12:46;3.80;;;3.10;;
19151;SDS011;9708;53.114;9.388;2023-10-31T04:15:12;1.43;;;1.23;;
19151;SDS011;9708;53.114;9.388;2023-10-31T04:17:39;1.77;;;1.67;;
19151;SDS011;9708;53.114;9.388;2023-10-31T04:20:06;1.20;;;1.20;;
19151;SDS011;9708;53.114;9.388;2023-10-31T04:22:35;2.27;;;1.93;;
19151;SDS011;9708;53.114;9.388;2023-10-31T04:25:02;6.23;;;2.47;;
19151;SDS011;9708;53.114;9.388;2023-10-31T04:27:29;2.33;;;2.03;;
19151;SDS011;9708;53.114;9.388;2023-10-31T04:29:56;2.37;;;2.13;;
19151;SDS011;9708;53.114;9.388;2023-10-31T04:32:23;1.87;;;1.73;;
19151;SDS011;9708;53.114;9.388;2023-10-31T04:34:50;3.00;;;1.57;;
19151;SDS011;9708;53.114;9.388;2023-10-31T04:37:16;2.20;;;1.73;;
19151;SDS011;9708;53.114;9.388;2023-10-31T04:39:45;2.30;;;2.10;;
19151;SDS011;9708;53.114;9.388;2023-10-31T04:42:12;2.60;;;2.33;;
19151;SDS011;9708;53.114;9.388;2023-10-31T04:44:38;5.10;;;2.20;;
19151;SDS011;9708;53.114;9.388;2023-10-31T04:47:05;2.77;;;2.53;;
19151;SDS011;9708;53.114;9.388;2023-10-31T04:49:34;1.33;;;1.33;;
19151;SDS011;9708;53.114;9.388;2023-10-31T04:52:01;2.80;;;1.97;;
19151;SDS011;9708;53.114;9.388;2023-10-31T04:54:28;2.80;;;1.60;;
19151;SDS011;9708;53.114;9.388;2023-10-31T04:56:56;1.83;;;1.73;;
19151;SDS011;9708;53.114;9.388;2023-10-31T04:59:22;3.10;;;2.00;;
19151;SDS011;9708;53.114;9.388;2023-10-31T05:01:49;1.20;;;1.10;;
19151;SDS011;9708;53.114;9.388;2023-10-31T05:04:17;2.03;;;1.57;;
19151;SDS011;9708;53.114;9.388;2023-10-31T05:06:44;2.83;;;1.40;;
19151;SDS011;9708;53.114;9.388;2023-10-31T05:09:11;1.10;;;1.10;;
19151;SDS011;9708;53.114;9.388;2023-10-31T05:11:37;2.43;;;1.77;;
19151;SDS011;9708;53.114;9.388;2023-10-31T05:14:07;1.90;;;1.20;;
19151;SDS011;9708;53.114;9.388;2023-10-31T05:16:38;1.93;;;1.57;;
19151;SDS011;9708;53.114;9.388;2023-10-31T05:19:06;1.17;;;1.00;;
19151;SDS011;9708;53.114;9.388;2023-10-31T05:21:33;1.53;;;1.03;;
19151;SDS011;9708;53.114;9.388;2023-10-31T05:24:00;0.70;;;0.70;;
19151;SDS011;9708;53.114;9.388;2023-10-31T05:26:27;0.70;;;0.70;;
19151;SDS011;9708;53.114;9.388;2023-10-31T05:28:54;0.80;;;0.80;;
19151;SDS011;9708;53.114;9.388;2023-10-31T05:31:23;1.10;;;1.00;;
19151;SDS011;9708;53.114;9.388;2023-10-31T05:33:50;0.50;;;0.50;;
19151;SDS011;9708;53.114;9.388;2023-10-31T05:36:17;0.43;;;0.43;;
19151;SDS011;9708;53.114;9.388;2023-10-31T05:38:45;1.17;;;1.07;;
19151;SDS011;9708;53.114;9.388;2023-10-31T05:41:12;0.77;;;0.77;;
19151;SDS011;9708;53.114;9.388;2023-10-31T05:43:39;0.50;;;0.50;;
19151;SDS011;9708;53.114;9.388;2023-10-31T05:46:05;0.60;;;0.60;;
19151;SDS011;9708;53.114;9.388;2023-10-31T05:48:36;0.70;;;0.70;;
19151;SDS011;9708;53.114;9.388;2023-10-31T05:51:03;0.50;;;0.50;;
19151;SDS011;9708;53.114;9.388;2023-10-31T05:53:30;1.60;;;1.37;;
19151;SDS011;9708;53.114;9.388;2023-10-31T05:55:58;0.77;;;0.77;;
19151;SDS011;9708;53.114;9.388;2023-10-31T05:58:25;3.07;;;1.70;;
19151;SDS011;9708;53.114;9.388;2023-10-31T06:00:52;0.70;;;0.70;;
19151;SDS011;9708;53.114;9.388;2023-10-31T06:03:19;2.63;;;1.83;;
19151;SDS011;9708;53.114;9.388;2023-10-31T06:05:47;1.50;;;1.40;;
19151;SDS011;9708;53.114;9.388;2023-10-31T06:08:14;2.73;;;1.90;;
19151;SDS011;9708;53.114;9.388;2023-10-31T06:10:39;1.47;;;1.20;;
19151;SDS011;9708;53.114;9.388;2023-10-31T06:13:06;4.20;;;1.77;;
19151;SDS011;9708;53.114;9.388;2023-10-31T06:15:33;2.13;;;1.43;;
19151;SDS011;9708;53.114;9.388;2023-10-31T06:18:00;2.03;;;1.43;;
19151;SDS011;9708;53.114;9.388;2023-10-31T06:20:28;2.70;;;1.07;;
19151;SDS011;9708;53.114;9.388;2023-10-31T06:22:56;1.50;;;1.40;;
19151;SDS011;9708;53.114;9.388;2023-10-31T06:25:24;2.10;;;1.03;;
19151;SDS011;9708;53.114;9.388;2023-10-31T06:27:50;1.33;;;1.23;;
19151;SDS011;9708;53.114;9.388;2023-10-31T06:30:17;0.60;;;0.60;;
19151;SDS011;9708;53.114;9.388;2023-10-31T06:32:44;1.30;;;1.23;;
19151;SDS011;9708;53.114;9.388;2023-10-31T06:35:10;0.50;;;0.50;;
19151;SDS011;9708;53.114;9.388;2023-10-31T06:37:37;1.07;;;1.07;;
19151;SDS011;9708;53.114;9.388;2023-10-31T06:40:06;0.40;;;0.40;;
19151;SDS011;9708;53.114;9.388;2023-10-31T06:42:34;0.40;;;0.40;;
19151;SDS011;9708;53.114;9.388;2023-10-31T06:45:01;0.70;;;0.70;;
19151;SDS011;9708;53.114;9.388;2023-10-31T06:47:28;0.50;;;0.50;;
19151;SDS011;9708;53.114;9.388;2023-10-31T06:49:55;0.30;;;0.30;;
19151;SDS011;9708;53.114;9.388;2023-10-31T06:52:21;0.30;;;0.30;;
19151;SDS011;9708;53.114;9.388;2023-10-31T06:54:48;0.40;;;0.40;;
19151;SDS011;9708;53.114;9.388;2023-10-31T06:57:16;0.90;;;0.90;;
19151;SDS011;9708;53.114;9.388;2023-10-31T06:59:43;0.33;;;0.33;;
19151;SDS011;9708;53.114;9.388;2023-10-31T07:02:11;0.40;;;0.40;;
19151;SDS011;9708;53.114;9.388;2023-10-31T07:04:39;0.50;;;0.50;;
19151;SDS011;9708;53.114;9.388;2023-10-31T07:07:05;0.73;;;0.73;;
19151;SDS011;9708;53.114;9.388;2023-10-31T07:09:32;1.00;;;0.67;;
19151;SDS011;9708;53.114;9.388;2023-10-31T07:11:59;1.93;;;1.83;;
19151;SDS011;9708;53.114;9.388;2023-10-31T07:14:28;0.47;;;0.47;;
19151;SDS011;9708;53.114;9.388;2023-10-31T07:16:55;0.40;;;0.40;;
19151;SDS011;9708;53.114;9.388;2023-10-31T07:19:22;0.60;;;0.60;;
19151;SDS011;9708;53.114;9.388;2023-10-31T07:21:49;0.43;;;0.43;;
19151;SDS011;9708;53.114;9.388;2023-10-31T07:24:16;0.50;;;0.50;;
19151;SDS011;9708;53.114;9.388;2023-10-31T07:26:43;0.60;;;0.60;;
19151;SDS011;9708;53.114;9.388;2023-10-31T07:29:10;0.40;;;0.40;;
19151;SDS011;9708;53.114;9.388;2023-10-31T07:31:38;0.40;;;0.40;;
19151;SDS011;9708;53.114;9.388;2023-10-31T07:34:05;0.40;;;0.40;;
19151;SDS011;9708;53.114;9.388;2023-10-31T07:36:32;0.40;;;0.40;;
19151;SDS011;9708;53.114;9.388;2023-10-31T07:39:00;0.30;;;0.30;;
19151;SDS011;9708;53.114;9.388;2023-10-31T07:41:27;0.40;;;0.40;;
19151;SDS011;9708;53.114;9.388;2023-10-31T07:43:53;0.50;;;0.50;;
19151;SDS011;9708;53.114;9.388;2023-10-31T07:46:20;0.50;;;0.50;;
19151;SDS011;9708;53.114;9.388;2023-10-31T07:48:49;0.30;;;0.30;;
19151;SDS011;9708;53.114;9.388;2023-10-31T07:51:16;0.83;;;0.40;;
19151;SDS011;9708;53.114;9.388;2023-10-31T07:53:42;0.40;;;0.40;;
19151;SDS011;9708;53.114;9.388;2023-10-31T07:56:14;0.60;;;0.60;;
19151;SDS011;9708;53.114;9.388;2023-10-31T07:58:41;0.47;;;0.47;;
19151;SDS011;9708;53.114;9.388;2023-10-31T08:01:08;0.37;;;0.37;;
19151;SDS011;9708;53.114;9.388;2023-10-31T08:03:35;1.60;;;1.13;;
19151;SDS011;9708;53.114;9.388;2023-10-31T08:06:05;2.33;;;2.13;;
19151;SDS011;9708;53.114;9.388;2023-10-31T08:08:32;3.10;;;0.87;;
19151;SDS011;9708;53.114;9.388;2023-10-31T08:10:59;0.30;;;0.30;;
19151;SDS011;9708;53.114;9.388;2023-10-31T08:13:26;0.60;;;0.60;;
19151;SDS011;9708;53.114;9.388;2023-10-31T08:15:53;4.07;;;0.67;;
19151;SDS011;9708;53.114;9.388;2023-10-31T08:18:19;0.30;;;0.30;;
19151;SDS011;9708;53.114;9.388;2023-10-31T08:20:47;0.40;;;0.40;;
19151;SDS011;9708;53.114;9.388;2023-10-31T08:23:17;0.30;;;0.30;;
19151;SDS011;9708;53.114;9.388;2023-10-31T08:25:44;2.00;;;0.50;;
19151;SDS011;9708;53.114;9.388;2023-10-31T08:28:11;0.40;;;0.40;;
19151;SDS011;9708;53.114;9.388;2023-10-31T08:30:38;0.50;;;0.50;;
19151;SDS011;9708;53.114;9.388;2023-10-31T08:33:05;0.50;;;0.50;;
19151;SDS011;9708;53.114;9.388;2023-10-31T08:35:31;0.93;;;0.93;;
19151;SDS011;9708;53.114;9.388;2023-10-31T08:37:58;0.30;;;0.30;;
19151;SDS011;9708;53.114;9.388;2023-10-31T08:40:26;0.40;;;0.40;;
19151;SDS011;9708;53.114;9.388;2023-10-31T08:42:53;0.30;;;0.30;;
19151;SDS011;9708;53.114;9.388;2023-10-31T08:45:20;0.30;;;0.30;;
19151;SDS011;9708;53.114;9.388;2023-10-31T08:47:47;0.40;;;0.40;;
19151;SDS011;9708;53.114;9.388;2023-10-31T08:50:15;0.30;;;0.30;;
19151;SDS011;9708;53.114;9.388;2023-10-31T08:52:42;0.30;;;0.30;;
19151;SDS011;9708;53.114;9.388;2023-10-31T08:55:09;0.30;;;0.30;;
19151;SDS011;9708;53.114;9.388;2023-10-31T08:57:37;0.43;;;0.43;;
19151;SDS011;9708;53.114;9.388;2023-10-31T09:00:04;0.40;;;0.40;;
19151;SDS011;9708;53.114;9.388;2023-10-31T09:02:32;0.40;;;0.40;;
19151;SDS011;9708;53.114;9.388;2023-10-31T09:04:58;0.30;;;0.30;;
19151;SDS011;9708;53.114;9.388;2023-10-31T09:07:25;0.40;;;0.40;;
19151;SDS011;9708;53.114;9.388;2023-10-31T09:09:52;0.50;;;0.50;;
19151;SDS011;9708;53.114;9.388;2023-10-31T09:12:19;0.80;;;0.80;;
19151;SDS011;9708;53.114;9.388;2023-10-31T09:14:47;0.40;;;0.40;;
19151;SDS011;9708;53.114;9.388;2023-10-31T09:17:14;0.60;;;0.60;;
19151;SDS011;9708;53.114;9.388;2023-10-31T09:19:40;0.50;;;0.50;;
19151;SDS011;9708;53.114;9.388;2023-10-31T09:22:07;0.30;;;0.30;;
19151;SDS011;9708;53.114;9.388;2023-10-31T09:24:34;0.60;;;0.60;;
19151;SDS011;9708;53.114;9.388;2023-10-31T09:27:01;0.67;;;0.53;;
19151;SDS011;9708;53.114;9.388;2023-10-31T09:29:28;0.40;;;0.40;;
19151;SDS011;9708;53.114;9.388;2023-10-31T09:31:56;0.60;;;0.60;;
19151;SDS011;9708;53.114;9.388;2023-10-31T09:34:24;0.50;;;0.50;;
19151;SDS011;9708;53.114;9.388;2023-10-31T09:36:50;0.40;;;0.40;;
19151;SDS011;9708;53.114;9.388;2023-10-31T09:39:17;0.50;;;0.50;;
19151;SDS011;9708;53.114;9.388;2023-10-31T09:41:44;0.40;;;0.40;;
19151;SDS011;9708;53.114;9.388;2023-10-31T09:44:11;0.30;;;0.30;;
19151;SDS011;9708;53.114;9.388;2023-10-31T09:46:37;0.53;;;0.53;;
19151;SDS011;9708;53.114;9.388;2023-10-31T09:49:06;0.30;;;0.30;;
19151;SDS011;9708;53.114;9.388;2023-10-31T09:51:35;0.83;;;0.73;;
19151;SDS011;9708;53.114;9.388;2023-10-31T09:54:04;0.30;;;0.30;;
19151;SDS011;9708;53.114;9.388;2023-10-31T09:56:32;0.87;;;0.87;;
19151;SDS011;9708;53.114;9.388;2023-10-31T09:59:00;0.30;;;0.30;;
19151;SDS011;9708;53.114;9.388;2023-10-31T10:01:27;0.30;;;0.30;;
19151;SDS011;9708;53.114;9.388;2023-10-31T10:03:54;0.30;;;0.30;;
19151;SDS011;9708;53.114;9.388;2023-10-31T10:06:23;0.30;;;0.30;;
19151;SDS011;9708;53.114;9.388;2023-10-31T10:08:50;0.50;;;0.50;;
19151;SDS011;9708;53.114;9.388;2023-10-31T10:11:17;0.30;;;0.30;;
19151;SDS011;9708;53.114;9.388;2023-10-31T10:13:44;0.30;;;0.30;;
19151;SDS011;9708;53.114;9.388;2023-10-31T10:16:11;0.60;;;0.60;;
19151;SDS011;9708;53.114;9.388;2023-10-31T10:18:38;1.00;;;1.00;;
19151;SDS011;9708;53.114;9.388;2023-10-31T10:21:05;0.30;;;0.30;;
19151;SDS011;9708;53.114;9.388;2023-10-31T10:23:34;1.37;;;0.40;;
19151;SDS011;9708;53.114;9.388;2023-10-31T10:26:01;0.40;;;0.40;;
19151;SDS011;9708;53.114;9.388;2023-10-31T10:28:28;0.43;;;0.43;;
19151;SDS011;9708;53.114;9.388;2023-10-31T10:30:58;0.50;;;0.33;;
19151;SDS011;9708;53.114;9.388;2023-10-31T10:33:24;0.30;;;0.30;;
19151;SDS011;9708;53.114;9.388;2023-10-31T10:35:51;0.43;;;0.37;;
19151;SDS011;9708;53.114;9.388;2023-10-31T10:38:21;0.40;;;0.40;;
19151;SDS011;9708;53.114;9.388;2023-10-31T10:40:49;0.30;;;0.30;;
19151;SDS011;9708;53.114;9.388;2023-10-31T10:43:20;0.30;;;0.30;;
19151;SDS011;9708;53.114;9.388;2023-10-31T10:45:48;0.30;;;0.30;;
19151;SDS011;9708;53.114;9.388;2023-10-31T10:48:21;0.30;;;0.30;;
19151;SDS011;9708;53.114;9.388;2023-10-31T10:50:50;0.30;;;0.30;;
19151;SDS011;9708;53.114;9.388;2023-10-31T10:53:23;0.30;;;0.30;;
19151;SDS011;9708;53.114;9.388;2023-10-31T10:55:55;0.30;;;0.30;;
19151;SDS011;9708;53.114;9.388;2023-10-31T10:58:25;0.40;;;0.40;;
19151;SDS011;9708;53.114;9.388;2023-10-31T11:01:03;0.77;;;0.77;;
19151;SDS011;9708;53.114;9.388;2023-10-31T11:03:31;0.33;;;0.33;;
19151;SDS011;9708;53.114;9.388;2023-10-31T11:05:58;8.93;;;4.60;;
19151;SDS011;9708;53.114;9.388;2023-10-31T11:08:26;0.70;;;0.70;;
19151;SDS011;9708;53.114;9.388;2023-10-31T11:10:55;1.03;;;0.97;;
19151;SDS011;9708;53.114;9.388;2023-10-31T11:13:23;0.40;;;0.40;;
19151;SDS011;9708;53.114;9.388;2023-10-31T11:15:51;0.70;;;0.70;;
19151;SDS011;9708;53.114;9.388;2023-10-31T11:18:22;2.20;;;0.87;;
19151;SDS011;9708;53.114;9.388;2023-10-31T11:20:51;0.87;;;0.87;;
19151;SDS011;9708;53.114;9.388;2023-10-31T11:23:18;0.40;;;0.40;;
19151;SDS011;9708;53.114;9.388;2023-10-31T11:25:46;0.50;;;0.50;;
19151;SDS011;9708;53.114;9.388;2023-10-31T11:28:18;0.50;;;0.50;;
19151;SDS011;9708;53.114;9.388;2023-10-31T11:30:46;0.43;;;0.43;;
19151;SDS011;9708;53.114;9.388;2023-10-31T11:33:15;2.23;;;1.63;;
19151;SDS011;9708;53.114;9.388;2023-10-31T11:35:49;2.33;;;0.90;;
19151;SDS011;9708;53.114;9.388;2023-10-31T11:38:16;0.40;;;0.40;;
19151;SDS011;9708;53.114;9.388;2023-10-31T11:41:00;0.40;;;0.40;;
19151;SDS011;9708;53.114;9.388;2023-10-31T11:48:50;0.47;;;0.47;;
19151;SDS011;9708;53.114;9.388;2023-10-31T11:51:18;1.03;;;1.03;;
19151;SDS011;9708;53.114;9.388;2023-10-31T11:53:45;1.97;;;0.60;;
19151;SDS011;9708;53.114;9.388;2023-10-31T11:56:11;0.63;;;0.63;;
19151;SDS011;9708;53.114;9.388;2023-10-31T11:58:38;0.80;;;0.80;;
19151;SDS011;9708;53.114;9.388;2023-10-31T12:01:07;0.70;;;0.67;;
19151;SDS011;9708;53.114;9.388;2023-10-31T12:03:38;0.40;;;0.40;;
19151;SDS011;9708;53.114;9.388;2023-10-31T12:06:06;0.60;;;0.60;;
19151;SDS011;9708;53.114;9.388;2023-10-31T12:08:35;0.70;;;0.70;;
19151;SDS011;9708;53.114;9.388;2023-10-31T12:11:04;0.80;;;0.80;;
19151;SDS011;9708;53.114;9.388;2023-10-31T12:13:31;1.07;;;1.07;;
19151;SDS011;9708;53.114;9.388;2023-10-31T12:15:58;2.00;;;1.37;;
19151;SDS011;9708;53.114;9.388;2023-10-31T12:18:28;0.70;;;0.70;;
19151;SDS011;9708;53.114;9.388;2023-10-31T12:20:54;0.90;;;0.90;;
19151;SDS011;9708;53.114;9.388;2023-10-31T12:23:21;1.13;;;0.77;;
19151;SDS011;9708;53.114;9.388;2023-10-31T12:25:48;1.00;;;1.00;;
19151;SDS011;9708;53.114;9.388;2023-10-31T12:28:19;2.03;;;1.53;;
19151;SDS011;9708;53.114;9.388;2023-10-31T12:30:46;1.13;;;0.70;;
19151;SDS011;9708;53.114;9.388;2023-10-31T12:33:14;0.87;;;0.87;;
19151;SDS011;9708;53.114;9.388;2023-10-31T12:35:42;1.20;;;1.10;;
19151;SDS011;9708;53.114;9.388;2023-10-31T12:38:10;4.83;;;0.60;;
19151;SDS011;9708;53.114;9.388;2023-10-31T12:40:38;0.50;;;0.50;;
19151;SDS011;9708;53.114;9.388;2023-10-31T12:43:05;1.17;;;1.10;;
19151;SDS011;9708;53.114;9.388;2023-10-31T12:45:33;0.87;;;0.87;;
19151;SDS011;9708;53.114;9.388;2023-10-31T12:48:00;1.03;;;1.03;;
19151;SDS011;9708;53.114;9.388;2023-10-31T12:50:27;1.53;;;1.23;;
19151;SDS011;9708;53.114;9.388;2023-10-31T12:52:56;2.97;;;1.70;;
19151;SDS011;9708;53.114;9.388;2023-10-31T12:55:24;2.00;;;1.50;;
19151;SDS011;9708;53.114;9.388;2023-10-31T12:57:53;2.67;;;1.83;;
19151;SDS011;9708;53.114;9.388;2023-10-31T13:00:22;1.47;;;1.37;;
19151;SDS011;9708;53.114;9.388;2023-10-31T13:02:58;2.20;;;1.20;;
19151;SDS011;9708;53.114;9.388;2023-10-31T13:05:26;0.40;;;0.40;;
19151;SDS011;9708;53.114;9.388;2023-10-31T13:07:54;0.87;;;0.87;;
19151;SDS011;9708;53.114;9.388;2023-10-31T13:10:25;0.70;;;0.70;;
19151;SDS011;9708;53.114;9.388;2023-10-31T13:12:54;1.27;;;0.70;;
19151;SDS011;9708;53.114;9.388;2023-10-31T13:15:21;0.73;;;0.73;;
19151;SDS011;9708;53.114;9.388;2023-10-31T13:17:49;0.63;;;0.63;;
19151;SDS011;9708;53.114;9.388;2023-10-31T13:20:17;0.70;;;0.70;;
19151;SDS011;9708;53.114;9.388;2023-10-31T13:22:44;0.87;;;0.80;;
19151;SDS011;9708;53.114;9.388;2023-10-31T13:25:14;0.60;;;0.60;;
19151;SDS011;9708;53.114;9.388;2023-10-31T13:27:42;6.30;;;3.43;;
19151;SDS011;9708;53.114;9.388;2023-10-31T13:30:10;1.30;;;1.20;;
19151;SDS011;9708;53.114;9.388;2023-10-31T13:32:38;1.63;;;1.53;;
19151;SDS011;9708;53.114;9.388;2023-10-31T13:35:06;1.00;;;0.40;;
19151;SDS011;9708;53.114;9.388;2023-10-31T13:37:34;0.80;;;0.80;;
19151;SDS011;9708;53.114;9.388;2023-10-31T13:40:01;0.30;;;0.30;;
19151;SDS011;9708;53.114;9.388;2023-10-31T13:42:29;0.67;;;0.67;;
19151;SDS011;9708;53.114;9.388;2023-10-31T13:44:56;0.30;;;0.30;;
19151;SDS011;9708;53.114;9.388;2023-10-31T13:47:23;0.40;;;0.40;;
19151;SDS011;9708;53.114;9.388;2023-10-31T13:49:49;0.30;;;0.30;;
19151;SDS011;9708;53.114;9.388;2023-10-31T13:52:16;0.60;;;0.60;;
19151;SDS011;9708;53.114;9.388;2023-10-31T13:54:43;0.53;;;0.53;;
19151;SDS011;9708;53.114;9.388;2023-10-31T13:57:10;0.40;;;0.40;;
19151;SDS011;9708;53.114;9.388;2023-10-31T13:59:38;0.30;;;0.30;;
19151;SDS011;9708;53.114;9.388;2023-10-31T14:02:06;0.40;;;0.40;;
19151;SDS011;9708;53.114;9.388;2023-10-31T14:04:32;0.30;;;0.30;;
19151;SDS011;9708;53.114;9.388;2023-10-31T14:06:59;0.30;;;0.30;;
19151;SDS011;9708;53.114;9.388;2023-10-31T14:09:26;0.30;;;0.30;;
19151;SDS011;9708;53.114;9.388;2023-10-31T14:11:53;0.93;;;0.93;;
19151;SDS011;9708;53.114;9.388;2023-10-31T14:14:19;0.57;;;0.57;;
19151;SDS011;9708;53.114;9.388;2023-10-31T14:16:47;1.67;;;0.87;;
19151;SDS011;9708;53.114;9.388;2023-10-31T14:19:15;0.30;;;0.30;;
19151;SDS011;9708;53.114;9.388;2023-10-31T14:21:43;0.33;;;0.33;;
19151;SDS011;9708;53.114;9.388;2023-10-31T14:24:09;0.43;;;0.43;;
19151;SDS011;9708;53.114;9.388;2023-10-31T14:26:36;0.30;;;0.30;;
19151;SDS011;9708;53.114;9.388;2023-10-31T14:29:05;0.63;;;0.60;;
19151;SDS011;9708;53.114;9.388;2023-10-31T14:31:37;0.40;;;0.40;;
19151;SDS011;9708;53.114;9.388;2023-10-31T14:34:06;0.30;;;0.30;;
19151;SDS011;9708;53.114;9.388;2023-10-31T14:36:34;0.40;;;0.40;;
19151;SDS011;9708;53.114;9.388;2023-10-31T14:39:01;0.30;;;0.30;;
19151;SDS011;9708;53.114;9.388;2023-10-31T14:41:28;0.37;;;0.37;;
19151;SDS011;9708;53.114;9.388;2023-10-31T14:43:58;0.30;;;0.30;;
19151;SDS011;9708;53.114;9.388;2023-10-31T14:46:25;0.30;;;0.30;;
19151;SDS011;9708;53.114;9.388;2023-10-31T14:48:52;0.93;;;0.50;;
19151;SDS011;9708;53.114;9.388;2023-10-31T14:51:20;0.40;;;0.40;;
19151;SDS011;9708;53.114;9.388;2023-10-31T14:53:46;0.30;;;0.30;;
19151;SDS011;9708;53.114;9.388;2023-10-31T14:56:13;0.40;;;0.40;;
19151;SDS011;9708;53.114;9.388;2023-10-31T14:58:40;0.30;;;0.30;;
19151;SDS011;9708;53.114;9.388;2023-10-31T15:01:07;0.30;;;0.30;;
19151;SDS011;9708;53.114;9.388;2023-10-31T15:03:34;0.30;;;0.30;;
19151;SDS011;9708;53.114;9.388;2023-10-31T15:06:01;0.60;;;0.60;;